createdAt,value
2022-12-27T00:01:33.806Z,88.00
2022-12-27T00:04:00.859Z,87.42
2022-12-27T00:06:28.703Z,87.82
2022-12-27T00:08:56.629Z,87.26
2022-12-27T00:11:26.332Z,86.91
2022-12-27T00:13:53.264Z,86.85
2022-12-27T00:16:21.336Z,87.35
2022-12-27T00:18:49.664Z,87.35
2022-12-27T00:21:17.601Z,86.39
2022-12-27T00:23:51.831Z,87.36
2022-12-27T00:26:24.679Z,87.13
2022-12-27T00:28:51.748Z,87.47
2022-12-27T00:31:21.504Z,85.99
2022-12-27T00:33:51.350Z,85.18
2022-12-27T00:36:20.797Z,84.68
2022-12-27T00:38:48.684Z,84.40
2022-12-27T00:41:16.302Z,83.14
2022-12-27T00:43:43.370Z,82.56
2022-12-27T00:46:11.385Z,82.06
2022-12-27T00:48:38.935Z,81.66
2022-12-27T00:51:18.106Z,81.76
2022-12-27T00:53:45.186Z,82.54
2022-12-27T00:56:19.921Z,81.96
2022-12-27T00:58:46.838Z,81.60
2022-12-27T01:01:20.162Z,76.96
2022-12-27T01:03:48.112Z,81.54
2022-12-27T01:06:18.075Z,82.04
2022-12-27T01:08:45.490Z,86.34
2022-12-27T01:11:13.433Z,85.47
2022-12-27T01:13:41.066Z,86.00
2022-12-27T01:16:21.095Z,87.07
2022-12-27T01:18:49.025Z,83.17
2022-12-27T01:21:19.819Z,85.43
2022-12-27T01:23:47.131Z,85.22
2022-12-27T01:26:17.966Z,82.44
2022-12-27T01:28:45.771Z,79.73
2022-12-27T01:31:16.907Z,80.58
2022-12-27T01:33:43.828Z,78.89
2022-12-27T01:36:13.129Z,80.10
2022-12-27T01:38:42.921Z,79.74
2022-12-27T01:41:49.974Z,84.66
2022-12-27T01:44:35.306Z,92.47
2022-12-27T01:47:04.634Z,95.59
2022-12-27T01:49:32.153Z,94.44
2022-12-27T01:51:59.130Z,91.56
2022-12-27T01:54:26.121Z,94.11
2022-12-27T01:56:55.827Z,94.56
2022-12-27T01:59:22.954Z,92.45
2022-12-27T02:01:50.883Z,94.05
2022-12-27T02:04:24.256Z,91.98
2022-12-27T02:06:52.146Z,92.57
2022-12-27T02:09:40.958Z,92.33
2022-12-27T02:12:10.275Z,92.80
2022-12-27T02:14:45.865Z,92.22
2022-12-27T02:17:17.516Z,91.40
2022-12-27T02:19:57.531Z,91.41
2022-12-27T02:23:01.282Z,93.11
2022-12-27T02:25:52.725Z,93.01
2022-12-27T02:29:02.485Z,91.63
2022-12-27T02:31:29.340Z,91.56
2022-12-27T02:33:58.757Z,92.84
2022-12-27T02:36:30.830Z,91.40
2022-12-27T02:39:01.713Z,91.44
2022-12-27T02:41:50.585Z,89.00
2022-12-27T02:44:38.044Z,92.78
2022-12-27T02:47:36.719Z,91.81
2022-12-27T02:50:22.895Z,89.64
2022-12-27T02:53:07.007Z,87.53
2022-12-27T02:56:10.876Z,87.02
2022-12-27T02:58:58.733Z,85.61
2022-12-27T03:01:55.864Z,84.90
2022-12-27T03:04:22.728Z,83.87
2022-12-27T03:07:31.853Z,82.63
2022-12-27T03:10:51.317Z,80.04
2022-12-27T03:13:53.099Z,80.39
2022-12-27T03:16:27.894Z,80.88
2022-12-27T03:19:12.980Z,83.28
2022-12-27T03:22:07.799Z,84.86
2022-12-27T03:24:58.484Z,83.05
2022-12-27T03:27:32.222Z,84.19
2022-12-27T03:30:21.251Z,84.91
2022-12-27T03:33:11.908Z,84.88
2022-12-27T03:36:28.037Z,82.16
2022-12-27T03:39:13.260Z,85.36
2022-12-27T03:42:04.756Z,84.64
2022-12-27T03:44:31.759Z,83.83
2022-12-27T03:47:10.247Z,84.11
2022-12-27T03:50:16.242Z,85.13
2022-12-27T03:52:49.226Z,85.07
2022-12-27T03:55:17.673Z,83.23
2022-12-27T03:57:44.931Z,84.10
2022-12-27T04:00:12.700Z,82.11
2022-12-27T04:02:43.688Z,81.40
2022-12-27T04:05:12.007Z,81.55
2022-12-27T04:07:38.888Z,81.93
2022-12-27T04:10:24.542Z,83.48
2022-12-27T04:13:10.157Z,85.54
2022-12-27T04:15:55.910Z,86.02
2022-12-27T04:18:41.413Z,86.81
2022-12-27T04:21:27.882Z,87.37
2022-12-27T04:24:13.283Z,87.19
2022-12-27T04:26:58.829Z,87.82
2022-12-27T04:29:44.457Z,87.27
2022-12-27T04:32:29.949Z,86.69
2022-12-27T04:34:56.824Z,85.87
2022-12-27T04:37:23.660Z,84.69
2022-12-27T04:40:09.371Z,85.16
2022-12-27T04:42:54.664Z,84.57
2022-12-27T04:45:41.458Z,85.90
2022-12-27T04:48:34.886Z,89.19
2022-12-27T04:51:20.446Z,90.63
2022-12-27T04:54:05.968Z,88.96
2022-12-27T04:56:32.836Z,88.64
2022-12-27T04:59:18.282Z,88.85
2022-12-27T05:02:03.546Z,88.07
2022-12-27T05:04:33.048Z,83.67
2022-12-27T05:07:20.536Z,83.61
2022-12-27T05:10:05.876Z,83.13
2022-12-27T05:12:51.341Z,81.95
2022-12-27T05:15:19.141Z,83.20
2022-12-27T05:17:46.006Z,85.03
2022-12-27T05:20:12.928Z,81.33
2022-12-27T05:22:58.423Z,79.33
2022-12-27T05:25:38.652Z,83.45
2022-12-27T05:28:08.426Z,84.11
2022-12-27T05:30:41.335Z,80.63
2022-12-27T05:33:08.935Z,78.56
2022-12-27T05:35:36.286Z,79.09
2022-12-27T05:38:03.820Z,77.20
2022-12-27T05:40:31.420Z,77.99
2022-12-27T05:43:00.393Z,83.95
2022-12-27T05:45:28.485Z,84.21
2022-12-27T05:47:55.585Z,84.28
2022-12-27T05:50:22.696Z,83.23
2022-12-27T05:52:50.599Z,83.27
2022-12-27T05:55:17.726Z,80.87
2022-12-27T05:57:44.628Z,79.67
2022-12-27T06:00:12.723Z,83.71
2022-12-27T06:02:42.408Z,83.12
2022-12-27T06:05:10.847Z,78.22
2022-12-27T06:07:38.912Z,77.22
2022-12-27T06:10:07.626Z,75.33
2022-12-27T06:12:34.701Z,72.58
2022-12-27T06:15:01.842Z,71.30
2022-12-27T06:17:28.809Z,71.04
2022-12-27T06:19:57.409Z,68.65
2022-12-27T06:22:25.152Z,63.02
2022-12-27T06:24:52.412Z,63.72
2022-12-27T06:27:19.349Z,58.98
2022-12-27T06:29:46.219Z,54.76
2022-12-27T06:32:13.526Z,51.50
2022-12-27T06:34:40.483Z,52.02
2022-12-27T06:37:07.351Z,54.50
2022-12-27T06:39:34.280Z,58.53
2022-12-27T06:42:01.197Z,64.76
2022-12-27T06:44:28.104Z,68.66
2022-12-27T06:46:55.123Z,67.60
2022-12-27T06:49:22.035Z,64.81
2022-12-27T06:51:55.667Z,64.22
2022-12-27T06:54:26.251Z,63.62
2022-12-27T06:56:53.099Z,60.97
2022-12-27T06:59:19.982Z,56.23
2022-12-27T07:01:46.942Z,53.95
2022-12-27T07:04:13.890Z,53.87
2022-12-27T07:06:40.867Z,51.31
2022-12-27T07:09:07.961Z,52.04
2022-12-27T07:11:37.079Z,52.06
2022-12-27T07:14:04.673Z,50.92
2022-12-27T07:16:31.986Z,48.29
2022-12-27T07:18:59.692Z,48.56
2022-12-27T07:21:29.141Z,53.37
2022-12-27T07:23:56.661Z,57.30
2022-12-27T07:26:30.267Z,57.32
2022-12-27T07:28:59.737Z,53.57
2022-12-27T07:31:30.943Z,48.78
2022-12-27T07:34:00.131Z,48.01
2022-12-27T07:36:30.217Z,48.73
2022-12-27T07:38:57.149Z,47.62
2022-12-27T07:41:25.537Z,44.10
2022-12-27T07:43:53.276Z,41.63
2022-12-27T07:46:22.680Z,40.17
2022-12-27T07:48:50.381Z,37.80
2022-12-27T07:51:18.992Z,35.89
2022-12-27T07:53:48.824Z,36.15
2022-12-27T07:56:25.419Z,36.75
2022-12-27T07:58:54.495Z,38.71
2022-12-27T08:01:23.292Z,36.55
2022-12-27T08:03:50.794Z,36.94
2022-12-27T08:06:23.394Z,37.50
2022-12-27T08:08:51.734Z,40.30
2022-12-27T08:11:19.686Z,41.08
2022-12-27T08:13:47.031Z,40.89
2022-12-27T08:16:20.974Z,44.19
2022-12-27T08:18:48.487Z,41.38
2022-12-27T08:21:15.801Z,40.71
2022-12-27T08:23:43.001Z,38.56
2022-12-27T08:26:10.761Z,38.07
2022-12-27T08:28:38.179Z,38.98
2022-12-27T08:31:09.871Z,37.01
2022-12-27T08:33:37.528Z,36.52
2022-12-27T08:36:22.354Z,36.73
2022-12-27T08:38:54.990Z,34.60
2022-12-27T08:41:22.586Z,33.43
2022-12-27T08:43:49.615Z,32.47
2022-12-27T08:46:16.711Z,32.40
2022-12-27T08:48:43.623Z,30.96
2022-12-27T08:51:13.823Z,31.68
2022-12-27T08:53:44.058Z,30.67
2022-12-27T08:56:11.158Z,32.54
2022-12-27T08:58:38.067Z,35.43
2022-12-27T09:01:09.414Z,33.17
2022-12-27T09:03:37.313Z,33.12
2022-12-27T09:06:12.151Z,31.20
2022-12-27T09:08:39.336Z,33.24
2022-12-27T09:11:13.863Z,34.71
2022-12-27T09:13:41.452Z,35.71
2022-12-27T09:16:11.169Z,35.26
2022-12-27T09:18:39.278Z,35.06
2022-12-27T09:21:12.371Z,33.82
2022-12-27T09:23:41.871Z,31.77
2022-12-27T09:26:14.386Z,29.88
2022-12-27T09:28:42.062Z,31.22
2022-12-27T09:31:10.704Z,28.38
2022-12-27T09:33:38.311Z,28.52
2022-12-27T09:36:09.852Z,30.28
2022-12-27T09:38:36.959Z,29.64
2022-12-27T09:42:34.214Z,29.89
2022-12-27T09:44:30.231Z,28.32
2022-12-27T09:46:59.195Z,29.53
2022-12-27T09:49:52.640Z,29.80
2022-12-27T09:52:26.838Z,29.66
2022-12-27T09:55:05.348Z,31.87
2022-12-27T09:57:42.409Z,30.55
2022-12-27T10:00:34.730Z,30.27
2022-12-27T10:03:06.960Z,29.78
2022-12-27T10:05:37.360Z,26.93
2022-12-27T10:08:07.176Z,29.30
2022-12-27T10:10:38.434Z,30.08
2022-12-27T10:13:37.672Z,29.77
2022-12-27T10:16:13.799Z,28.00
2022-12-27T10:18:59.203Z,25.92
2022-12-27T10:21:30.105Z,25.61
2022-12-27T10:24:20.928Z,25.34
2022-12-27T10:26:48.031Z,25.20
2022-12-27T10:29:23.054Z,27.60
2022-12-27T10:31:50.744Z,27.34
2022-12-27T10:34:24.757Z,27.79
2022-12-27T10:36:53.124Z,27.83
2022-12-27T10:39:30.110Z,27.59
2022-12-27T10:42:19.837Z,28.68
2022-12-27T10:44:46.720Z,30.99
2022-12-27T10:47:13.957Z,30.51
2022-12-27T10:49:45.803Z,29.79
2022-12-27T10:52:23.919Z,29.61
2022-12-27T10:54:55.602Z,29.27
2022-12-27T10:57:29.856Z,29.29
2022-12-27T11:00:19.682Z,30.92
2022-12-27T11:02:55.131Z,30.44
2022-12-27T11:05:26.913Z,30.59
2022-12-27T11:07:54.318Z,30.02
2022-12-27T11:10:27.309Z,32.87
2022-12-27T11:13:03.766Z,31.40
2022-12-27T11:15:34.985Z,30.17
2022-12-27T11:18:10.050Z,30.42
2022-12-27T11:20:39.601Z,30.18
2022-12-27T11:23:09.455Z,29.04
2022-12-27T11:25:51.759Z,28.30
2022-12-27T11:28:36.941Z,28.18
2022-12-27T11:31:07.706Z,28.70
2022-12-27T11:33:41.264Z,28.20
2022-12-27T11:36:12.812Z,28.89
2022-12-27T11:38:44.766Z,28.98
2022-12-27T11:41:27.562Z,28.35
2022-12-27T11:44:11.043Z,28.95
2022-12-27T11:46:59.257Z,29.66
2022-12-27T11:49:36.392Z,28.85
2022-12-27T11:52:12.052Z,28.46
2022-12-27T11:54:44.911Z,27.68
2022-12-27T11:57:15.171Z,27.91
2022-12-27T11:59:54.416Z,27.32
2022-12-27T12:02:27.362Z,27.26
2022-12-27T12:05:33.352Z,28.57
2022-12-27T12:08:48.753Z,30.96
2022-12-27T12:12:01.288Z,28.95
2022-12-27T12:14:54.701Z,28.41
2022-12-27T12:17:40.231Z,30.66
2022-12-27T12:20:22.281Z,32.66
2022-12-27T12:23:13.114Z,30.40
2022-12-27T12:26:01.754Z,34.34
2022-12-27T12:29:00.303Z,35.06
2022-12-27T12:32:00.647Z,35.95
2022-12-27T12:34:36.893Z,36.65
2022-12-27T12:37:35.591Z,38.41
2022-12-27T12:40:21.227Z,40.50
2022-12-27T12:43:13.895Z,44.16
2022-12-27T12:45:49.766Z,46.22
2022-12-27T12:48:41.610Z,47.57
2022-12-27T12:51:18.781Z,47.45
2022-12-27T12:53:57.860Z,48.32
2022-12-27T12:56:48.699Z,48.56
2022-12-27T12:59:45.944Z,48.79
2022-12-27T13:02:19.092Z,48.75
2022-12-27T13:05:16.654Z,49.08
2022-12-27T13:08:11.288Z,46.77
2022-12-27T13:10:38.167Z,46.79
2022-12-27T13:13:04.976Z,46.29
2022-12-27T13:15:37.926Z,48.44
2022-12-27T13:18:31.869Z,48.43
2022-12-27T13:21:42.111Z,47.14
2022-12-27T13:24:45.915Z,46.00
2022-12-27T13:27:35.600Z,48.81
2022-12-27T13:30:14.637Z,47.46
2022-12-27T13:33:33.921Z,47.13
2022-12-27T13:36:19.100Z,49.24
2022-12-27T13:39:15.055Z,50.71
2022-12-27T13:42:00.404Z,51.17
2022-12-27T13:45:11.179Z,51.59
2022-12-27T13:48:05.413Z,51.72
2022-12-27T13:50:38.070Z,51.40
2022-12-27T13:53:17.212Z,50.99
2022-12-27T13:55:55.675Z,50.62
2022-12-27T13:58:28.331Z,49.87
2022-12-27T14:01:16.842Z,49.48
2022-12-27T14:04:06.407Z,48.97
2022-12-27T14:06:36.206Z,49.86
2022-12-27T14:09:21.729Z,51.48
2022-12-27T14:12:05.144Z,52.05
2022-12-27T14:14:37.182Z,52.09
2022-12-27T14:17:16.961Z,52.76
2022-12-27T14:19:58.773Z,52.72
2022-12-27T14:22:40.888Z,53.54
2022-12-27T14:25:39.922Z,54.15
2022-12-27T14:28:45.686Z,55.50
2022-12-27T14:31:45.385Z,56.19
2022-12-27T14:34:49.948Z,56.93
2022-12-27T14:37:57.477Z,57.63
2022-12-27T14:41:01.625Z,58.45
2022-12-27T14:43:31.168Z,58.94
2022-12-27T14:46:24.222Z,59.44
2022-12-27T14:49:07.296Z,60.06
2022-12-27T14:52:08.727Z,60.07
2022-12-27T14:55:06.785Z,60.24
2022-12-27T14:58:06.419Z,60.14
2022-12-27T15:00:57.540Z,60.37
2022-12-27T15:03:49.157Z,60.63
2022-12-27T15:06:25.212Z,60.36
2022-12-27T15:09:07.359Z,61.41
2022-12-27T15:12:06.584Z,61.68
2022-12-27T15:15:04.177Z,62.01
2022-12-27T15:17:31.000Z,62.87
2022-12-27T15:20:25.159Z,63.21
2022-12-27T15:23:13.442Z,63.38
2022-12-27T15:26:10.299Z,63.72
2022-12-27T15:28:43.087Z,64.57
2022-12-27T15:31:21.442Z,64.82
2022-12-27T15:34:14.461Z,64.96
2022-12-27T15:36:44.739Z,65.97
2022-12-27T15:39:34.900Z,67.23
2022-12-27T15:42:44.809Z,67.37
2022-12-27T15:45:36.604Z,67.45
2022-12-27T15:48:30.119Z,68.50
2022-12-27T15:51:20.344Z,68.55
2022-12-27T15:54:02.151Z,69.47
2022-12-27T15:56:45.672Z,69.92
2022-12-27T15:59:35.438Z,70.11
2022-12-27T16:02:17.849Z,70.75
2022-12-27T16:04:50.499Z,70.81
2022-12-27T16:07:55.394Z,71.73
2022-12-27T16:10:35.316Z,72.10
2022-12-27T16:13:05.078Z,72.59
2022-12-27T16:15:55.790Z,73.11
2022-12-27T16:18:22.683Z,74.08
2022-12-27T16:20:58.669Z,74.40
2022-12-27T16:23:29.690Z,74.11
2022-12-27T16:26:15.636Z,74.74
2022-12-27T16:28:55.473Z,74.54
2022-12-27T16:31:41.854Z,74.40
2022-12-27T16:34:31.782Z,74.23
2022-12-27T16:37:00.200Z,73.86
2022-12-27T16:39:38.953Z,73.16
2022-12-27T16:42:07.888Z,73.48
2022-12-27T16:44:54.189Z,72.05
2022-12-27T16:47:30.148Z,73.75
2022-12-27T16:50:18.232Z,75.27
2022-12-27T16:53:13.314Z,73.90
2022-12-27T16:55:53.802Z,74.32
2022-12-27T16:58:26.820Z,74.84
2022-12-27T17:00:56.875Z,74.07
2022-12-27T17:03:32.346Z,74.61
2022-12-27T17:09:09.707Z,74.41
2022-12-27T17:11:51.950Z,75.13
2022-12-27T17:14:21.887Z,74.50
2022-12-27T17:16:51.981Z,73.70
2022-12-27T17:19:32.982Z,72.66
2022-12-27T17:22:06.551Z,71.58
2022-12-27T17:24:34.380Z,70.88
2022-12-27T17:27:25.463Z,70.50
2022-12-27T17:30:36.867Z,73.21
2022-12-27T17:33:09.315Z,74.98
2022-12-27T17:35:42.958Z,75.16
2022-12-27T17:38:16.046Z,73.94
2022-12-27T17:41:01.222Z,71.58
2022-12-27T17:44:25.128Z,71.47
2022-12-27T17:47:02.448Z,74.63
2022-12-27T17:49:31.316Z,74.61
2022-12-27T17:52:19.241Z,75.37
2022-12-27T17:55:04.731Z,75.34
2022-12-27T17:57:50.941Z,76.67
2022-12-27T18:00:26.864Z,77.65
2022-12-27T18:02:56.917Z,78.26
2022-12-27T18:05:29.620Z,78.46
2022-12-27T18:08:07.367Z,77.06
2022-12-27T18:10:36.748Z,73.69
2022-12-27T18:13:07.165Z,72.95
2022-12-27T18:15:37.397Z,72.01
2022-12-27T18:18:07.235Z,72.04
2022-12-27T18:20:40.635Z,71.23
2022-12-27T18:23:12.748Z,71.66
2022-12-27T18:25:50.048Z,71.96
2022-12-27T18:28:20.337Z,72.00
2022-12-27T18:31:22.299Z,72.41
2022-12-27T18:33:55.248Z,72.37
2022-12-27T18:36:34.145Z,73.40
2022-12-27T18:39:13.525Z,74.14
2022-12-27T18:41:48.845Z,73.93
2022-12-27T18:44:23.165Z,75.24
2022-12-27T18:46:57.123Z,74.26
2022-12-27T18:49:30.939Z,74.10
2022-12-27T18:51:58.587Z,74.73
2022-12-27T18:54:28.245Z,76.13
2022-12-27T18:56:59.714Z,74.89
2022-12-27T18:59:36.684Z,73.14
2022-12-27T19:02:33.014Z,72.48
2022-12-27T19:05:27.448Z,73.43
2022-12-27T19:08:24.536Z,73.45
2022-12-27T19:10:52.166Z,74.67
2022-12-27T19:13:26.522Z,74.08
2022-12-27T19:15:55.292Z,74.39
2022-12-27T19:18:29.414Z,74.36
2022-12-27T19:21:01.565Z,74.18
2022-12-27T19:23:39.846Z,74.41
2022-12-27T19:26:15.770Z,74.92
2022-12-27T19:28:58.751Z,75.12
2022-12-27T19:31:25.899Z,75.29
2022-12-27T19:34:06.808Z,75.75
2022-12-27T19:36:38.248Z,75.08
2022-12-27T19:39:18.320Z,74.95
2022-12-27T19:41:46.203Z,74.20
2022-12-27T19:44:13.171Z,73.85
2022-12-27T19:46:40.118Z,73.91
2022-12-27T19:49:40.219Z,74.75
2022-12-27T19:51:57.305Z,75.62
2022-12-27T19:54:27.493Z,75.80
2022-12-27T19:56:55.763Z,76.28
2022-12-27T19:59:24.365Z,76.53
2022-12-27T20:01:52.809Z,76.43
2022-12-27T20:04:19.820Z,77.24
2022-12-27T20:06:49.062Z,76.49
2022-12-27T20:09:18.791Z,75.80
2022-12-27T20:11:46.916Z,77.22
2022-12-27T20:14:14.715Z,76.43
2022-12-27T20:16:41.820Z,77.33
2022-12-27T20:19:12.476Z,77.28
2022-12-27T20:21:40.803Z,77.63
2022-12-27T20:24:11.343Z,78.88
2022-12-27T20:26:38.858Z,79.64
2022-12-27T20:29:05.919Z,78.70
2022-12-27T20:31:32.994Z,77.99
2022-12-27T20:34:00.143Z,75.39
2022-12-27T20:36:27.089Z,72.26
2022-12-27T20:38:53.951Z,72.85
2022-12-27T20:41:21.886Z,72.52
2022-12-27T20:43:54.277Z,71.53
2022-12-27T20:46:21.301Z,70.40
2022-12-27T20:48:48.462Z,69.60
2022-12-27T20:51:18.720Z,69.33
2022-12-27T20:53:48.664Z,69.09
2022-12-27T20:56:16.455Z,68.80
2022-12-27T20:58:43.658Z,68.04
2022-12-27T21:01:22.301Z,68.25
2022-12-27T21:03:49.649Z,68.55
2022-12-27T21:06:22.171Z,69.55
2022-12-27T21:08:56.375Z,70.03
2022-12-27T21:11:27.255Z,69.74
2022-12-27T21:13:55.317Z,69.87
2022-12-27T21:16:26.504Z,69.66
2022-12-27T21:18:53.985Z,68.98
2022-12-27T21:21:27.654Z,67.89
2022-12-27T21:23:55.592Z,67.79
2022-12-27T21:26:28.120Z,70.05
2022-12-27T21:28:56.040Z,72.93
2022-12-27T21:31:23.482Z,72.21
2022-12-27T21:33:51.085Z,71.97
2022-12-27T21:36:23.207Z,70.81
2022-12-27T21:38:50.614Z,70.07
2022-12-27T21:41:21.050Z,70.18
2022-12-27T21:43:49.222Z,69.62
2022-12-27T21:46:17.541Z,69.50
2022-12-27T21:48:44.635Z,70.45
2022-12-27T21:51:14.427Z,70.78
2022-12-27T21:53:42.423Z,73.27
2022-12-27T21:56:11.636Z,72.46
2022-12-27T21:58:40.217Z,72.83
2022-12-27T22:01:10.752Z,71.05
2022-12-27T22:03:39.922Z,71.21
2022-12-27T22:06:17.333Z,71.21
2022-12-27T22:08:46.561Z,71.50
2022-12-27T22:11:13.958Z,71.53
2022-12-27T22:13:42.058Z,70.79
2022-12-27T22:16:14.681Z,69.12
2022-12-27T22:18:42.957Z,69.53
2022-12-27T22:21:12.505Z,68.45
2022-12-27T22:23:42.545Z,67.27
2022-12-27T22:26:15.097Z,66.23
2022-12-27T22:28:42.399Z,66.90
2022-12-27T22:31:11.952Z,66.13
2022-12-27T22:33:39.222Z,66.08
2022-12-27T22:36:11.304Z,66.64
2022-12-27T22:38:38.485Z,65.41
2022-12-27T22:41:12.695Z,65.62
2022-12-27T22:43:41.412Z,65.36
2022-12-27T22:46:10.403Z,66.53
2022-12-27T22:48:37.937Z,68.65
2022-12-27T22:51:08.740Z,68.38
2022-12-27T22:53:35.772Z,69.17
2022-12-27T22:56:02.708Z,69.73
2022-12-27T22:58:32.668Z,71.95
2022-12-27T23:00:59.853Z,72.63
2022-12-27T23:03:26.853Z,73.12
2022-12-27T23:05:58.492Z,74.32
2022-12-27T23:08:26.186Z,73.96
2022-12-27T23:10:53.175Z,73.97
2022-12-27T23:13:22.394Z,72.60
2022-12-27T23:16:00.049Z,68.62
2022-12-27T23:18:28.188Z,70.21
2022-12-27T23:21:21.632Z,69.54
2022-12-27T23:23:43.314Z,68.91
2022-12-27T23:26:14.657Z,67.41
2022-12-27T23:28:43.848Z,67.00
2022-12-27T23:31:12.264Z,66.92
2022-12-27T23:33:40.986Z,66.49
2022-12-27T23:36:08.487Z,65.87
2022-12-27T23:38:36.688Z,66.54
2022-12-27T23:41:05.999Z,67.11
2022-12-27T23:43:54.839Z,66.91
2022-12-27T23:46:27.576Z,67.16
2022-12-27T23:48:57.330Z,70.65
2022-12-27T23:51:24.951Z,70.96
2022-12-27T23:53:52.636Z,73.63
2022-12-27T23:56:23.587Z,77.12
2022-12-27T23:58:52.531Z,77.71
